Data for 03/22/2018

Time Sea-Level Adjusted Pressure Absolute Pressure Temperature Relative Humidity Dew Point   
(mb) (inHg) (mb) (inHg) (C) (F) (%) (C) (F)
00:05 1015 29.97 844 24.92 5 40.9 55 -3.3 26
00:10 1015 29.97 844 24.92 4.8 40.7 56 -3.2 26.3
00:15 1015 29.97 844 24.92 4.7 40.4 56 -3.3 26
00:20 1015 29.97 844 24.92 4.7 40.4 56 -3.3 26
00:25 1015 29.97 844 24.92 4.6 40.3 56 -3.3 26.1
00:30 1015 29.97 844 24.92 4.6 40.3 57 -3.3 26.1
00:35 1015 29.97 844 24.92 4.7 40.4 57 -3.2 26.2
00:40 1015 29.97 844 24.92 4.7 40.4 57 -3.1 26.4
00:45 1015 29.97 844 24.92 4.7 40.4 57 -3.1 26.4
00:50 1015 29.97 844 24.92 4.7 40.4 57 -3.1 26.3
00:55 1015 29.97 844 24.92 4.7 40.5 56 -3.3 26.1
01:00 1015 29.97 844 24.92 4.8 40.6 56 -3.2 26.3
01:05 1015 29.97 844 24.92 4.8 40.6 57 -3.1 26.3
01:10 1015 29.97 844 24.92 4.6 40.4 57 -3 26.6
01:15 1015 29.97 844 24.92 4.6 40.4 57 -3.1 26.4
01:20 1015 29.97 844 24.92 4.7 40.5 57 -3.1 26.3
01:25 1015 29.97 844 24.92 4.8 40.6 57 -2.9 26.7
01:30 1015 29.97 844 24.92 4.8 40.6 56 -3.2 26.3
01:35 1015 29.97 844 24.92 4.9 40.8 57 -3 26.7
01:40 1015 29.97 844 24.92 4.8 40.6 57 -3 26.6
01:45 1015 29.97 844 24.92 4.8 40.7 57 -3 26.6
01:50 1015 29.97 844 24.92 4.9 40.8 57 -3 26.6
01:55 1015 29.97 844 24.92 5.1 41.2 55 -3.1 26.5
02:00 1015 29.97 844 24.92 5.1 41.2 56 -3 26.7
02:05 1015 29.97 844 24.92 5.2 41.4 55 -3 26.5
02:10 1015 29.97 844 24.92 5.3 41.5 56 -2.9 26.8
02:15 1015 29.97 844 24.92 5.3 41.6 55 -2.9 26.8
02:20 1015 29.97 844 24.92 5.4 41.6 55 -2.9 26.9
02:25 1015 29.97 844 24.92 5.3 41.5 56 -2.7 27.1
02:30 1015 29.97 844 24.92 5.3 41.5 56 -2.8 27
02:35 1015 29.97 844 24.92 5.3 41.5 56 -2.7 27.1
02:40 1015 29.97 844 24.92 5.4 41.7 56 -2.8 27
02:45 1015 29.97 844 24.92 5.5 41.9 55 -2.8 27
02:50 1015 29.97 844 24.92 5.6 42 55 -2.8 27
02:55 1015 29.97 845 24.95 5.6 42 55 -2.6 27.2
03:00 1015 29.97 844 24.92 5.6 42.1 55 -2.7 27.1
03:05 1015 29.97 845 24.95 5.8 42.4 55 -2.7 27.2
03:10 1015 29.97 845 24.95 5.8 42.5 55 -2.6 27.3
03:15 1015 29.97 845 24.95 5.9 42.6 54 -2.6 27.2
03:20 1015 29.97 844 24.92 5.9 42.7 54 -2.5 27.4
03:25 1015 29.97 844 24.92 5.9 42.5 55 -2.5 27.4
03:30 1015 29.97 844 24.92 5.7 42.3 55 -2.5 27.5
03:35 1015 29.97 844 24.92 5.7 42.3 56 -2.5 27.6
03:40 1015 29.97 844 24.92 5.8 42.5 55 -2.4 27.6
03:45 1015 29.97 844 24.92 5.9 42.6 55 -2.4 27.6
03:50 1015 29.97 844 24.92 5.9 42.6 55 -2.4 27.7
03:55 1015 29.97 844 24.92 5.8 42.5 56 -2.3 27.8
04:00 1015 29.97 844 24.92 5.8 42.5 56 -2.2 28
04:05 1015 29.97 844 24.92 5.7 42.3 57 -2.2 28.1
04:10 1015 29.97 844 24.92 5.8 42.4 56 -2.2 28
04:15 1015 29.97 844 24.92 5.9 42.7 56 -2.1 28.2
04:20 1015 29.97 844 24.92 6 42.8 56 -2.2 28
04:25 1015 29.97 844 24.92 6.1 43 56 -2 28.3
04:30 1015 29.97 844 24.92 6.1 43 57 -1.8 28.7
04:35 1015 29.97 844 24.92 6 42.8 57 -1.8 28.8
04:40 1015 29.97 844 24.92 5.9 42.7 58 -1.7 29
04:45 1015 29.97 844 24.92 6 42.7 58 -1.7 29
04:50 1015 29.97 844 24.92 5.9 42.6 58 -1.7 29
04:55 1015 29.97 844 24.92 5.9 42.6 58 -1.6 29.1
05:00 1015 29.97 844 24.92 6 42.8 57 -1.7 28.9
05:05 1015 29.97 844 24.92 6 42.9 58 -1.5 29.4
05:10 1015 29.97 844 24.92 5.9 42.6 59 -1.6 29.1
05:15 1015 29.97 844 24.92 6 42.8 58 -1.6 29.2
05:20 1015 29.97 844 24.92 6 42.8 58 -1.7 28.9
05:25 1015 29.97 844 24.92 6 42.8 58 -1.6 29.1
05:30 1015 29.97 844 24.92 5.9 42.6 58 -1.7 29
05:35 1015 29.97 844 24.92 5.9 42.6 58 -1.7 28.9
05:40 1015 29.97 844 24.92 6 42.8 57 -1.8 28.8
05:45 1015 29.97 844 24.92 6 42.8 58 -1.7 28.9
05:50 1015 29.97 844 24.92 5.9 42.7 58 -1.7 29
05:55 1015 29.97 844 24.92 6 42.8 57 -1.8 28.7
06:00 1015 29.97 844 24.92 6.1 42.9 58 -1.6 29.2
06:05 1015 29.97 844 24.92 6.1 43 58 -1.6 29.1
06:10 1015 29.97 844 24.92 6.1 43 58 -1.6 29.2
06:15 1015 29.97 844 24.92 6.1 43 58 -1.5 29.2
06:20 1015 29.97 844 24.92 6.2 43.1 58 -1.5 29.3
06:25 1015 29.97 844 24.92 6 42.9 58 -1.5 29.2
06:30 1015 29.97 844 24.92 6.1 42.9 58 -1.5 29.3
06:35 1015 29.97 844 24.92 6.1 43 58 -1.5 29.3
06:40 1015 29.97 844 24.92 6.1 42.9 59 -1.4 29.4
06:45 1015 29.97 844 24.92 6 42.8 59 -1.4 29.5
06:50 1015 29.97 844 24.92 5.9 42.6 59 -1.4 29.5
06:55 1015 29.97 844 24.92 5.9 42.6 60 -1.4 29.5
07:00 1015 29.97 844 24.92 5.8 42.4 60 -1.4 29.4
07:05 1015 29.97 844 24.92 5.8 42.4 60 -1.5 29.4
07:10 1014 29.94 844 24.92 6 42.8 59 -1.4 29.4
07:15 1014 29.94 844 24.92 6.1 43 59 -1.4 29.5
07:20 1014 29.94 844 24.92 6.3 43.3 58 -1.3 29.6
07:25 1014 29.94 843 24.89 6.3 43.4 58 -1.3 29.7
07:30 1014 29.94 843 24.89 6.4 43.5 58 -1.2 29.8
07:35 1014 29.94 843 24.89 6.4 43.4 58 -1.3 29.7
07:40 1014 29.94 843 24.89 6.2 43.2 59 -1.2 29.8
07:45 1014 29.94 843 24.89 6.2 43.1 58 -1.4 29.4
07:50 1014 29.94 843 24.89 6.3 43.4 58 -1.4 29.6
07:55 1014 29.94 843 24.89 6.3 43.3 58 -1.3 29.7
08:00 1014 29.94 843 24.89 6.4 43.5 58 -1.4 29.5
08:05 1014 29.94 843 24.89 6.7 44.1 57 -1.2 29.8
08:10 1014 29.94 843 24.89 6.8 44.2 57 -1.1 30
08:15 1014 29.94 843 24.89 6.6 43.9 58 -1.1 30
08:20 1014 29.94 843 24.89 6.7 44 57 -1.1 30
08:25 1014 29.94 843 24.89 6.7 44.1 57 -1.1 29.9
08:30 1014 29.94 843 24.89 7 44.6 56 -1 30.1
08:35 1014 29.94 843 24.89 7.1 44.8 57 -0.9 30.4
08:40 1014 29.94 843 24.89 7.2 45 57 -0.8 30.5
08:45 1014 29.94 843 24.89 7.3 45.1 56 -0.8 30.5
08:50 1014 29.94 843 24.89 7.4 45.3 57 -0.7 30.8
08:55 1014 29.94 843 24.89 7.5 45.4 57 -0.5 31
09:00 1014 29.94 843 24.89 7.5 45.4 57 -0.4 31.2
09:05 1014 29.94 843 24.89 7.6 45.6 56 -0.5 31.1
09:10 1014 29.94 843 24.89 7.7 45.9 56 -0.5 31
09:15 1014 29.94 843 24.89 7.9 46.1 55 -0.6 31
09:20 1014 29.94 843 24.89 8.2 46.7 54 -0.6 31
09:25 1014 29.94 843 24.89 8.4 47.1 53 -0.6 31
09:30 1014 29.94 843 24.89 8.5 47.3 53 -0.4 31.2
09:35 1013 29.91 843 24.89 8.6 47.5 53 -0.4 31.3
09:40 1013 29.91 843 24.89 8.6 47.6 52 -0.6 31
09:45 1013 29.91 843 24.89 8.8 47.9 52 -0.4 31.2
09:50 1014 29.94 843 24.89 8.9 48 52 -0.5 31.2
09:55 1013 29.91 843 24.89 8.9 48.1 52 -0.4 31.2
10:00 1013 29.91 843 24.89 8.9 48.1 52 -0.5 31.2
10:05 1013 29.91 842 24.86 8.9 48.1 52 -0.5 31.1
10:10 1013 29.91 843 24.89 9 48.2 51 -0.7 30.8
10:15 1013 29.91 843 24.89 9.1 48.4 50 -0.7 30.7
10:20 1013 29.91 843 24.89 9.3 48.7 49 -0.8 30.5
10:25 1013 29.91 843 24.89 9.4 48.9 49 -0.8 30.5
10:30 1013 29.91 843 24.89 9.4 48.9 49 -0.8 30.6
10:35 1013 29.91 843 24.89 9.5 49 48 -0.9 30.4
10:40 1013 29.91 843 24.89 9.6 49.2 48 -0.9 30.4
10:45 1013 29.91 843 24.89 9.6 49.3 48 -1 30.3
10:50 1013 29.91 843 24.89 9.7 49.4 48 -0.9 30.5
10:55 1013 29.91 842 24.86 9.8 49.7 47 -1 30.2
11:00 1013 29.91 842 24.86 10.1 50.1 46 -1.1 30.1
11:05 1013 29.91 842 24.86 10.2 50.4 46 -1 30.3
11:10 1013 29.91 842 24.86 10.4 50.6 46 -0.8 30.6
11:15 1013 29.91 842 24.86 10.5 50.9 45 -1 30.3
11:20 1013 29.91 842 24.86 10.7 51.3 44 -1 30.3
11:25 1013 29.91 842 24.86 10.6 51.2 45 -0.8 30.5
11:30 1013 29.91 842 24.86 10.7 51.2 44 -1 30.3
11:35 1013 29.91 842 24.86 10.8 51.4 44 -1 30.2
11:40 1013 29.91 842 24.86 11.1 52 43 -1 30.3
11:45 1013 29.91 842 24.86 11.3 52.3 43 -0.9 30.4
11:50 1013 29.91 842 24.86 11.5 52.6 41 -1.2 29.8
11:55 1013 29.91 842 24.86 11.8 53.3 41 -0.9 30.4
12:00 1013 29.91 842 24.86 11.7 53.1 41 -1.1 30
12:05 1013 29.91 842 24.86 11.6 52.8 42 -0.9 30.3
12:10 1013 29.91 842 24.86 11.7 53.1 41 -1.1 30.1
12:15 1013 29.91 842 24.86 11.7 53 42 -0.9 30.3
12:20 1013 29.91 842 24.86 11.6 52.9 41 -1.1 29.9
12:25 1013 29.91 842 24.86 11.6 52.9 40 -1.3 29.6
12:30 1013 29.91 842 24.86 11.8 53.2 40 -1.4 29.5
12:35 1013 29.91 842 24.86 11.5 52.8 42 -1 30.2
12:40 1013 29.91 842 24.86 11.4 52.4 41 -1.2 29.8
12:45 1013 29.91 842 24.86 11.6 52.8 41 -1.1 30
12:50 1012 29.88 842 24.86 11.3 52.4 41 -1.4 29.5
12:55 1012 29.88 841 24.83 11.4 52.4 42 -1 30.1
13:00 1012 29.88 841 24.83 11.5 52.6 42 -1.1 30
13:05 1012 29.88 841 24.83 11.6 53 42 -0.9 30.4
13:10 1012 29.88 841 24.83 11.9 53.3 41 -0.8 30.6
13:15 1012 29.88 841 24.83 11.9 53.4 41 -0.8 30.6
13:20 1011 29.85 841 24.83 12.1 53.8 39 -1.2 29.8
13:25 1011 29.85 840 24.81 12.1 53.8 39 -1.3 29.7
13:30 1011 29.85 840 24.81 12.4 54.3 41 -0.3 31.5
13:35 1011 29.85 840 24.81 11.8 53.2 43 -0.2 31.6
13:40 1011 29.85 840 24.81 11.7 53.1 44 -0 31.9
13:45 1011 29.85 840 24.81 11.6 52.9 43 -0.4 31.3
13:50 1011 29.85 840 24.81 11.7 53 43 -0.5 31.1
13:55 1011 29.85 840 24.81 11.9 53.4 41 -0.7 30.7
14:00 1011 29.85 840 24.81 11.9 53.4 42 -0.7 30.7
14:05 1011 29.85 840 24.81 12 53.6 40 -1.1 30.1
14:10 1010 29.83 840 24.81 12.2 53.9 39 -1.4 29.5
14:15 1010 29.83 839 24.78 12.5 54.4 38 -1.2 29.8
14:20 1010 29.83 839 24.78 12.5 54.4 39 -1.1 30
14:25 1010 29.83 839 24.78 12.5 54.4 39 -1 30.2
14:30 1010 29.83 839 24.78 12.1 53.9 41 -0.6 31
14:35 1010 29.83 839 24.78 11.7 53 43 -0.4 31.2
14:40 1010 29.83 839 24.78 11.5 52.7 43 -0.7 30.7
14:45 1010 29.83 839 24.78 11.5 52.7 43 -0.6 30.8
14:50 1010 29.83 839 24.78 11.7 53 42 -0.6 30.9
14:55 1010 29.83 839 24.78 11.8 53.3 42 -0.5 31
15:00 1010 29.83 839 24.78 11.7 53.1 42 -0.6 30.9
15:05 1010 29.83 839 24.78 11.8 53.2 42 -0.6 30.9
15:10 1010 29.83 839 24.78 11.8 53.3 42 -0.5 31
15:15 1009 29.8 839 24.78 11.9 53.3 42 -0.6 30.9
15:20 1009 29.8 839 24.78 12.1 53.7 42 -0.5 31.1
15:25 1009 29.8 838 24.75 12.2 54 41 -0.6 31
15:30 1009 29.8 838 24.75 12.3 54.1 42 -0.3 31.5
15:35 1009 29.8 838 24.75 12.3 54.2 41 -0.6 31
15:40 1009 29.8 838 24.75 12.2 54 42 -0.4 31.3
15:45 1009 29.8 838 24.75 12.3 54.1 41 -0.4 31.2
15:50 1009 29.8 838 24.75 12.3 54.2 41 -0.5 31.1
15:55 1009 29.8 838 24.75 12.3 54.2 41 -0.6 31
16:00 1009 29.8 838 24.75 12.1 53.9 42 -0.4 31.2
16:05 1009 29.8 838 24.75 12 53.5 42 -0.6 31
16:10 1009 29.8 838 24.75 11.9 53.4 42 -0.5 31.1
16:15 1009 29.8 838 24.75 12 53.7 42 -0.6 31
16:20 1009 29.8 838 24.75 12 53.6 42 -0.4 31.3
16:25 1008 29.77 838 24.75 12.1 53.7 42 -0.3 31.4
16:30 1008 29.77 838 24.75 12.1 53.7 43 -0.1 31.7
16:35 1008 29.77 838 24.75 12.1 53.7 42 -0.4 31.3
16:40 1008 29.77 838 24.75 12.2 54 42 -0.3 31.4
16:45 1008 29.77 838 24.75 11.3 52.3 43 -0.7 30.8
16:50 1008 29.77 838 24.75 10.8 51.4 44 -0.8 30.5
16:55 1008 29.77 838 24.75 10.5 51 45 -0.7 30.7
17:00 1008 29.77 837 24.72 10.5 50.9 47 -0.3 31.5
17:05 1008 29.77 837 24.72 10.8 51.5 47 -0 31.9
17:10 1008 29.77 837 24.72 11.2 52.2 47 0.3 32.5
17:15 1008 29.77 837 24.72 11.3 52.3 46 0.3 32.5
17:20 1008 29.77 837 24.72 11.2 52.2 47 0.3 32.5
17:25 1008 29.77 837 24.72 11 51.8 47 0.3 32.5
17:30 1008 29.77 837 24.72 11.1 52 47 0.1 32.3
17:35 1008 29.77 837 24.72 11.2 52.1 47 0.3 32.5
17:40 1008 29.77 837 24.72 11.2 52.1 47 0.2 32.4
17:45 1008 29.77 837 24.72 11.1 52 47 0.3 32.6
17:50 1008 29.77 837 24.72 10.7 51.3 49 0.4 32.8
17:55 1008 29.77 837 24.72 10.2 50.4 49 0.1 32.1
18:00 1008 29.77 837 24.72 9.9 49.9 49 -0.2 31.6
18:05 1008 29.77 837 24.72 9.9 49.8 50 0.1 32.2
18:10 1008 29.77 837 24.72 9.9 49.7 51 0.3 32.5
18:15 1008 29.77 837 24.72 9.8 49.6 51 0.2 32.4
18:20 1008 29.77 837 24.72 9.8 49.7 51 0.2 32.3
18:25 1008 29.77 837 24.72 9.8 49.6 51 0.2 32.3
18:30 1008 29.77 837 24.72 9.7 49.5 52 0.4 32.8
18:35 1008 29.77 837 24.72 9.8 49.7 51 0.3 32.6
18:40 1008 29.77 837 24.72 9.9 49.7 52 0.5 32.9
18:45 1008 29.77 837 24.72 9.8 49.7 52 0.4 32.8
18:50 1008 29.77 837 24.72 9.8 49.6 52 0.3 32.6
18:55 1008 29.77 837 24.72 9.8 49.6 52 0.5 32.9
19:00 1008 29.77 837 24.72 9.9 49.8 52 0.5 32.9
19:05 1008 29.77 837 24.72 9.9 49.7 53 0.7 33.2
19:10 1008 29.77 837 24.72 9.6 49.3 53 0.5 32.9
19:15 1008 29.77 837 24.72 9.5 49.2 53 0.5 32.9
19:20 1008 29.77 837 24.72 9.5 49 53 0.5 32.9
19:25 1008 29.77 837 24.72 9.4 48.9 54 0.5 32.9
19:30 1008 29.77 837 24.72 9.4 48.9 54 0.5 32.8
19:35 1008 29.77 837 24.72 9.4 48.8 54 0.4 32.8
19:40 1008 29.77 837 24.72 9.3 48.7 53 0.3 32.6
19:45 1008 29.77 837 24.72 9.2 48.6 54 0.4 32.7
19:50 1008 29.77 837 24.72 9.2 48.5 54 0.4 32.8
19:55 1008 29.77 837 24.72 9.1 48.4 55 0.5 32.9
20:00 1008 29.77 837 24.72 9.1 48.4 55 0.6 33.1
20:05 1008 29.77 837 24.72 9.1 48.3 56 0.7 33.2
20:10 1007 29.74 837 24.72 9 48.2 56 0.7 33.3
20:15 1007 29.74 837 24.72 9 48.1 56 0.7 33.2
20:20 1007 29.74 837 24.72 8.9 48 56 0.7 33.2
20:25 1007 29.74 837 24.72 8.9 47.9 56 0.6 33.2
20:30 1007 29.74 837 24.72 8.8 47.8 56 0.6 33.1
20:35 1007 29.74 837 24.72 8.7 47.7 57 0.6 33.1
20:40 1007 29.74 836 24.69 8.7 47.7 56 0.6 33
20:45 1007 29.74 837 24.72 8.9 47.9 56 0.6 33
20:50 1007 29.74 837 24.72 8.9 48 56 0.7 33.2
20:55 1007 29.74 837 24.72 8.8 47.9 58 1 33.9
21:00 1007 29.74 837 24.72 8.7 47.7 60 1.4 34.5
21:05 1008 29.77 837 24.72 8.5 47.3 62 1.6 34.9
21:10 1008 29.77 837 24.72 8.3 47 63 1.7 35
21:15 1008 29.77 837 24.72 8.2 46.8 64 1.9 35.5
21:20 1008 29.77 837 24.72 8.5 47.2 62 1.5 34.8
21:25 1008 29.77 837 24.72 8.5 47.3 64 2.2 36
21:30 1008 29.77 837 24.72 7.9 46.2 68 2.5 36.4
21:35 1007 29.74 837 24.72 7.8 46 68 2.2 36
21:40 1007 29.74 837 24.72 8 46.4 69 2.7 36.9
21:45 1008 29.77 837 24.72 7.6 45.7 73 3.1 37.6
21:50 1008 29.77 837 24.72 7.1 44.8 74 2.8 37
21:55 1008 29.77 837 24.72 6.9 44.5 74 2.7 36.9
22:00 1007 29.74 837 24.72 7.1 44.8 74 2.8 37.1
22:05 1007 29.74 837 24.72 7.1 44.7 76 3.1 37.5
22:10 1007 29.74 837 24.72 6.8 44.2 79 3.4 38.2
22:15 1007 29.74 837 24.72 6.5 43.7 80 3.3 37.9
22:20 1007 29.74 837 24.72 6.3 43.3 82 3.4 38
22:25 1007 29.74 837 24.72 6.1 43 82 3.3 38
22:30 1007 29.74 837 24.72 6 42.7 84 3.4 38.1
22:35 1008 29.77 837 24.72 5.7 42.3 85 3.4 38.1
22:40 1008 29.77 837 24.72 5.5 41.9 86 3.3 37.9
22:45 1008 29.77 837 24.72 5.4 41.8 86 3.3 38
22:50 1008 29.77 837 24.72 5.5 41.8 86 3.4 38
22:55 1008 29.77 837 24.72 5.4 41.8 86 3.3 38
23:00 1008 29.77 837 24.72 5.4 41.8 87 3.4 38.2
23:05 1007 29.74 837 24.72 5.4 41.7 87 3.4 38.1
23:10 1007 29.74 837 24.72 5.2 41.4 87 3.3 38
23:15 1007 29.74 837 24.72 5.3 41.5 88 3.4 38.1
23:20 1007 29.74 837 24.72 5.4 41.8 86 3.3 38
23:25 1007 29.74 837 24.72 5.6 42 86 3.4 38.1
23:30 1007 29.74 837 24.72 5.6 42.1 86 3.4 38.1
23:35 1007 29.74 837 24.72 5.6 42.1 86 3.4 38.1
23:40 1007 29.74 837 24.72 5.6 42.1 86 3.4 38.1
23:45 1008 29.77 837 24.72 5.5 41.9 86 3.3 38
23:50 1008 29.77 837 24.72 5.2 41.4 87 3.2 37.8
23:55 1008 29.77 837 24.72 5.2 41.3 87 3.2 37.7
24:00 1008 29.77 837 24.72 5.2 41.4 87 3.3 37.9